createdAt,value
2022-09-16T00:01:13.316Z,8.50
2022-09-16T00:03:43.357Z,8.53
2022-09-16T00:06:18.753Z,7.40
2022-09-16T00:08:46.894Z,6.53
2022-09-16T00:11:15.705Z,8.43
2022-09-16T00:13:43.886Z,8.37
2022-09-16T00:16:17.242Z,7.90
2022-09-16T00:18:46.768Z,8.53
2022-09-16T00:21:15.139Z,8.33
2022-09-16T00:23:43.380Z,8.37
2022-09-16T00:26:11.518Z,8.37
2022-09-16T00:28:39.626Z,8.70
2022-09-16T00:31:07.778Z,8.10
2022-09-16T00:33:36.186Z,8.63
2022-09-16T00:36:13.873Z,8.87
2022-09-16T00:38:42.639Z,7.40
2022-09-16T00:41:17.069Z,8.53
2022-09-16T00:43:53.978Z,8.63
2022-09-16T00:46:27.882Z,8.40
2022-09-16T00:48:56.163Z,8.37
2022-09-16T00:51:26.332Z,8.97
2022-09-16T00:53:58.139Z,8.30
2022-09-16T00:56:29.731Z,8.33
2022-09-16T00:59:03.397Z,8.80
2022-09-16T01:01:32.393Z,8.60
2022-09-16T01:04:04.141Z,8.37
2022-09-16T01:06:35.904Z,9.80
2022-09-16T01:09:04.878Z,9.07
2022-09-16T01:11:32.852Z,9.57
2022-09-16T01:14:16.758Z,9.60
2022-09-16T01:16:49.097Z,9.33
2022-09-16T01:19:38.657Z,9.03
2022-09-16T01:22:23.278Z,8.53
2022-09-16T01:24:55.787Z,9.40
2022-09-16T01:27:56.183Z,8.17
2022-09-16T01:30:44.836Z,8.53
2022-09-16T01:33:24.074Z,8.63
2022-09-16T01:36:07.502Z,8.50
2022-09-16T01:38:46.166Z,8.70
2022-09-16T01:41:22.148Z,8.13
2022-09-16T01:43:57.028Z,7.33
2022-09-16T01:46:40.672Z,7.10
2022-09-16T01:49:17.457Z,7.50
2022-09-16T01:51:50.780Z,7.57
2022-09-16T01:54:24.887Z,7.37
2022-09-16T01:57:00.087Z,8.83
2022-09-16T01:59:35.256Z,8.30
2022-09-16T02:02:10.833Z,8.30
2022-09-16T02:04:44.780Z,9.13
2022-09-16T02:07:16.133Z,9.10
2022-09-16T02:09:50.472Z,7.47
2022-09-16T02:12:24.500Z,8.70
2022-09-16T02:14:58.652Z,9.00
2022-09-16T02:17:31.412Z,8.50
2022-09-16T02:20:04.440Z,7.83
2022-09-16T02:22:35.584Z,7.80
2022-09-16T02:25:06.053Z,8.07
2022-09-16T02:27:36.601Z,8.73
2022-09-16T02:30:08.454Z,8.27
2022-09-16T02:32:42.511Z,7.93
2022-09-16T02:35:13.737Z,8.50
2022-09-16T02:37:46.165Z,8.43
2022-09-16T02:40:18.016Z,8.53
2022-09-16T02:42:46.349Z,8.23
2022-09-16T02:45:14.838Z,8.73
2022-09-16T02:47:53.633Z,7.60
2022-09-16T02:50:29.762Z,7.70
2022-09-16T02:53:03.062Z,6.87
2022-09-16T02:55:37.660Z,7.40
2022-09-16T02:58:06.221Z,7.53
2022-09-16T03:00:39.935Z,7.33
2022-09-16T03:03:09.865Z,6.70
2022-09-16T03:06:15.621Z,7.87
2022-09-16T03:08:45.262Z,7.80
2022-09-16T03:11:31.027Z,8.00
2022-09-16T03:14:24.160Z,7.43
2022-09-16T03:17:03.473Z,8.00
2022-09-16T03:19:40.357Z,8.10
2022-09-16T03:22:18.078Z,7.47
2022-09-16T03:24:55.343Z,8.70
2022-09-16T03:27:31.830Z,8.10
2022-09-16T03:30:06.378Z,8.20
2022-09-16T03:32:38.527Z,8.20
2022-09-16T03:35:13.081Z,7.77
2022-09-16T03:37:42.985Z,8.37
2022-09-16T03:40:14.226Z,7.67
2022-09-16T03:42:43.722Z,8.37
2022-09-16T03:45:16.447Z,8.63
2022-09-16T03:47:45.523Z,8.20
2022-09-16T03:50:15.492Z,8.23
2022-09-16T03:52:43.532Z,9.30
2022-09-16T03:55:12.691Z,8.07
2022-09-16T03:57:41.091Z,8.80
2022-09-16T04:00:10.782Z,10.30
2022-09-16T04:02:41.830Z,9.83
2022-09-16T04:05:10.679Z,9.47
2022-09-16T04:07:40.094Z,9.63
2022-09-16T04:10:11.844Z,9.80
2022-09-16T04:12:40.388Z,9.43
2022-09-16T04:15:09.381Z,8.37
2022-09-16T04:17:37.696Z,8.63
2022-09-16T04:20:07.473Z,8.93
2022-09-16T04:22:35.909Z,8.43
2022-09-16T04:25:06.019Z,8.40
2022-09-16T04:27:34.126Z,8.57
2022-09-16T04:30:02.185Z,9.80
2022-09-16T04:32:30.207Z,8.30
2022-09-16T04:34:58.425Z,9.37
2022-09-16T04:37:26.503Z,8.50
2022-09-16T04:39:54.586Z,8.87
2022-09-16T04:42:24.054Z,8.83
2022-09-16T04:44:52.324Z,9.33
2022-09-16T04:47:20.541Z,8.83
2022-09-16T04:49:48.554Z,9.03
2022-09-16T04:52:16.663Z,9.20
2022-09-16T04:54:44.646Z,9.40
2022-09-16T04:57:12.689Z,9.40
2022-09-16T04:59:42.176Z,9.20
2022-09-16T05:02:10.216Z,11.00
2022-09-16T05:04:38.268Z,9.53
2022-09-16T05:07:06.400Z,9.57
2022-09-16T05:09:34.428Z,8.60
2022-09-16T05:12:02.834Z,9.97
2022-09-16T05:14:31.019Z,10.03
2022-09-16T05:17:00.944Z,9.87
2022-09-16T05:19:29.618Z,9.13
2022-09-16T05:21:57.699Z,10.67
2022-09-16T05:24:26.018Z,9.40
2022-09-16T05:26:54.059Z,9.33
2022-09-16T05:29:22.296Z,10.83
2022-09-16T05:31:50.692Z,9.60
2022-09-16T05:34:23.280Z,10.23
2022-09-16T05:36:53.921Z,9.33
2022-09-16T05:39:24.237Z,10.30
2022-09-16T05:41:55.565Z,10.30
2022-09-16T05:44:23.885Z,10.93
2022-09-16T05:46:51.979Z,9.93
2022-09-16T05:49:21.655Z,10.70
2022-09-16T05:51:50.500Z,12.23
2022-09-16T05:54:19.409Z,11.10
2022-09-16T05:56:48.242Z,10.70
2022-09-16T05:59:17.411Z,11.07
2022-09-16T06:01:45.857Z,10.47
2022-09-16T06:04:15.596Z,11.47
2022-09-16T06:06:46.695Z,10.30
2022-09-16T06:09:16.635Z,11.60
2022-09-16T06:11:46.766Z,10.93
2022-09-16T06:14:16.001Z,11.03
2022-09-16T06:16:44.815Z,10.80
2022-09-16T06:19:15.225Z,10.20
2022-09-16T06:21:45.814Z,11.80
2022-09-16T06:24:15.222Z,12.10
2022-09-16T06:26:45.113Z,9.60
2022-09-16T06:29:14.377Z,11.17
2022-09-16T06:31:42.815Z,11.43
2022-09-16T06:34:16.114Z,10.70
2022-09-16T06:36:45.917Z,11.40
2022-09-16T06:39:15.606Z,12.07
2022-09-16T06:41:43.753Z,11.60
2022-09-16T06:44:12.216Z,11.30
2022-09-16T06:46:40.243Z,11.90
2022-09-16T06:49:10.878Z,9.17
2022-09-16T06:51:38.964Z,11.30
2022-09-16T06:54:09.504Z,11.00
2022-09-16T06:56:39.659Z,11.03
2022-09-16T06:59:08.589Z,11.00
2022-09-16T07:01:36.703Z,11.80
2022-09-16T07:04:08.272Z,12.50
2022-09-16T07:09:26.350Z,12.30
2022-09-16T07:11:55.212Z,11.73
2022-09-16T07:14:23.942Z,11.90
2022-09-16T07:16:52.198Z,11.43
2022-09-16T07:19:20.276Z,12.80
2022-09-16T07:21:48.388Z,11.50
2022-09-16T07:24:16.773Z,11.40
2022-09-16T07:26:46.843Z,11.00
2022-09-16T07:29:16.778Z,12.17
2022-09-16T07:31:44.933Z,11.77
2022-09-16T07:34:14.639Z,11.67
2022-09-16T07:36:44.612Z,12.13
2022-09-16T07:39:14.461Z,11.23
2022-09-16T07:41:46.390Z,12.57
2022-09-16T07:44:16.200Z,12.60
2022-09-16T07:46:44.746Z,11.20
2022-09-16T07:49:15.299Z,13.70
2022-09-16T07:51:43.860Z,12.90
2022-09-16T07:54:13.654Z,12.33
2022-09-16T07:56:43.867Z,13.00
2022-09-16T07:59:18.415Z,13.10
2022-09-16T08:01:47.943Z,12.30
2022-09-16T08:04:16.401Z,13.20
2022-09-16T08:06:44.502Z,14.33
2022-09-16T08:09:38.821Z,12.70
2022-09-16T08:12:02.610Z,13.03
2022-09-16T08:14:33.354Z,13.80
2022-09-16T08:17:02.827Z,13.23
2022-09-16T08:19:30.841Z,14.10
2022-09-16T08:21:58.853Z,12.17
2022-09-16T08:24:27.112Z,13.00
2022-09-16T08:29:25.875Z,12.40
2022-09-16T08:31:55.347Z,13.63
2022-09-16T08:34:23.891Z,12.63
2022-09-16T08:36:52.374Z,12.97
2022-09-16T08:39:21.705Z,11.87
2022-09-16T08:42:04.988Z,13.23
2022-09-16T08:44:42.586Z,13.10
2022-09-16T08:47:23.413Z,13.40
2022-09-16T08:49:54.243Z,13.50
2022-09-16T08:52:32.016Z,12.30
2022-09-16T08:55:04.423Z,12.67
2022-09-16T08:57:43.576Z,12.60
2022-09-16T09:00:16.550Z,12.50
2022-09-16T09:02:53.071Z,14.00
2022-09-16T09:05:29.923Z,14.77
2022-09-16T09:08:12.015Z,12.87
2022-09-16T09:10:47.810Z,13.50
2022-09-16T09:13:31.414Z,13.40
2022-09-16T09:16:08.415Z,12.80
2022-09-16T09:18:45.373Z,14.40
2022-09-16T09:21:27.248Z,13.60
2022-09-16T09:24:18.014Z,11.93
2022-09-16T09:26:50.761Z,14.03
2022-09-16T09:29:40.728Z,13.90
2022-09-16T09:32:19.638Z,13.67
2022-09-16T09:35:03.752Z,13.63
2022-09-16T09:37:46.289Z,14.13
2022-09-16T09:40:20.294Z,14.90
2022-09-16T09:42:53.210Z,12.97
2022-09-16T09:45:30.456Z,14.30
2022-09-16T09:48:04.044Z,15.10
2022-09-16T09:50:40.766Z,13.80
2022-09-16T09:53:17.014Z,14.00
2022-09-16T09:55:45.625Z,12.63
2022-09-16T09:58:22.791Z,15.90
2022-09-16T10:00:53.275Z,15.13
2022-09-16T10:03:21.706Z,15.70
2022-09-16T10:05:51.148Z,14.90
2022-09-16T10:08:26.529Z,15.73
2022-09-16T10:10:57.204Z,16.37
2022-09-16T10:13:27.201Z,15.73
2022-09-16T10:16:08.026Z,16.33
2022-09-16T10:18:37.044Z,15.60
2022-09-16T10:21:08.412Z,15.90
2022-09-16T10:23:39.317Z,15.47
2022-09-16T10:26:22.542Z,15.50
2022-09-16T10:29:05.294Z,16.70
2022-09-16T10:31:38.773Z,14.90
2022-09-16T10:34:16.638Z,17.00
2022-09-16T10:36:46.321Z,13.90
2022-09-16T10:39:25.492Z,17.30
2022-09-16T10:41:53.827Z,14.80
2022-09-16T10:44:26.581Z,16.37
2022-09-16T10:46:57.674Z,11.30
2022-09-16T10:49:33.406Z,17.80
2022-09-16T10:52:17.935Z,16.83
2022-09-16T10:54:46.801Z,10.73
2022-09-16T10:57:26.793Z,16.60
2022-09-16T11:00:05.179Z,11.43
2022-09-16T11:03:08.011Z,12.93
2022-09-16T11:05:45.711Z,12.30
2022-09-16T11:08:22.438Z,13.63
2022-09-16T11:10:57.621Z,13.07
2022-09-16T11:13:41.720Z,12.77
2022-09-16T11:16:27.148Z,9.87
2022-09-16T11:19:04.124Z,14.27
2022-09-16T11:21:49.630Z,10.93
2022-09-16T11:24:36.603Z,9.30
2022-09-16T11:27:15.668Z,9.10
2022-09-16T11:29:58.680Z,9.47
2022-09-16T11:32:38.376Z,7.53
2022-09-16T11:35:31.129Z,8.27
2022-09-16T11:38:07.152Z,9.60
2022-09-16T11:40:47.779Z,9.03
2022-09-16T11:43:45.902Z,10.17
2022-09-16T11:46:23.520Z,11.17
2022-09-16T11:49:06.479Z,10.60
2022-09-16T11:51:49.770Z,7.77
2022-09-16T11:54:36.938Z,6.47
2022-09-16T11:57:13.193Z,6.67
2022-09-16T11:59:50.968Z,7.30
2022-09-16T12:02:26.278Z,7.30
2022-09-16T12:05:04.924Z,7.03
2022-09-16T12:07:39.285Z,7.90
2022-09-16T12:10:17.286Z,7.07
2022-09-16T12:12:51.088Z,8.87
2022-09-16T12:15:24.055Z,7.27
2022-09-16T12:17:55.818Z,8.30
2022-09-16T12:20:28.889Z,6.00
2022-09-16T12:23:03.374Z,7.30
2022-09-16T12:25:38.400Z,7.27
2022-09-16T12:28:16.654Z,7.53
2022-09-16T12:30:48.451Z,5.50
2022-09-16T12:33:23.563Z,7.70
2022-09-16T12:35:58.104Z,7.50
2022-09-16T12:38:26.662Z,7.70
2022-09-16T12:41:13.620Z,6.70
2022-09-16T12:44:17.087Z,6.80
2022-09-16T12:47:15.448Z,5.90
2022-09-16T12:50:08.975Z,6.30
2022-09-16T12:53:14.688Z,7.20
2022-09-16T12:55:54.934Z,7.47
2022-09-16T12:58:43.169Z,8.17
2022-09-16T13:01:21.163Z,7.30
2022-09-16T13:03:53.227Z,8.63
2022-09-16T13:06:28.048Z,6.93
2022-09-16T13:08:57.331Z,7.57
2022-09-16T13:14:24.382Z,7.70
2022-09-16T13:16:58.946Z,6.70
2022-09-16T13:19:37.908Z,6.77
2022-09-16T13:22:25.449Z,6.00
2022-09-16T13:25:01.407Z,5.80
2022-09-16T13:27:35.186Z,6.30
2022-09-16T13:30:28.001Z,5.10
2022-09-16T13:33:03.883Z,5.43
2022-09-16T13:35:39.924Z,6.50
2022-09-16T13:38:24.926Z,5.37
2022-09-16T13:40:58.221Z,6.10
2022-09-16T13:43:36.170Z,6.50
2022-09-16T13:46:08.136Z,5.87
2022-09-16T13:48:47.244Z,5.23
2022-09-16T13:51:19.428Z,5.93
2022-09-16T13:53:50.702Z,5.93
2022-09-16T13:56:50.405Z,5.40
2022-09-16T13:59:35.042Z,4.93
2022-09-16T14:02:15.215Z,5.50
2022-09-16T14:05:01.047Z,5.93
2022-09-16T14:07:39.931Z,5.50
2022-09-16T14:10:14.513Z,5.70
2022-09-16T14:12:53.165Z,5.80
2022-09-16T14:15:22.810Z,5.27
2022-09-16T14:17:55.018Z,5.43
2022-09-16T14:20:26.433Z,6.00
2022-09-16T14:23:05.096Z,5.40
2022-09-16T14:25:34.918Z,5.73
2022-09-16T14:28:19.255Z,6.07
2022-09-16T14:30:50.018Z,5.70
2022-09-16T14:33:21.764Z,6.80
2022-09-16T14:35:53.297Z,4.90
2022-09-16T14:38:44.264Z,6.40
2022-09-16T14:41:14.783Z,7.30
2022-09-16T14:43:42.962Z,6.90
2022-09-16T14:46:11.088Z,6.90
2022-09-16T14:48:43.272Z,7.03
2022-09-16T14:51:20.119Z,7.33
2022-09-16T14:54:11.773Z,6.97
2022-09-16T14:56:40.770Z,5.40
2022-09-16T14:59:12.515Z,6.80
2022-09-16T15:01:41.994Z,6.27
2022-09-16T15:04:15.848Z,6.50
2022-09-16T15:06:49.894Z,7.33
2022-09-16T15:09:21.657Z,7.10
2022-09-16T15:11:55.340Z,6.43
2022-09-16T15:14:24.780Z,6.20
2022-09-16T15:17:00.758Z,6.60
2022-09-16T15:19:34.127Z,6.87
2022-09-16T15:22:04.951Z,7.67
2022-09-16T15:24:35.934Z,6.87
2022-09-16T15:27:04.640Z,7.07
2022-09-16T15:29:35.507Z,6.77
2022-09-16T15:32:19.530Z,8.20
2022-09-16T15:34:49.622Z,7.30
2022-09-16T15:37:35.588Z,6.37
2022-09-16T15:40:30.059Z,7.10
2022-09-16T15:43:14.111Z,7.40
2022-09-16T15:45:43.894Z,6.13
2022-09-16T15:48:17.558Z,6.93
2022-09-16T15:50:49.568Z,7.13
2022-09-16T15:53:23.146Z,6.67
2022-09-16T15:56:00.029Z,6.77
2022-09-16T15:58:39.503Z,6.50
2022-09-16T16:01:13.651Z,7.27
2022-09-16T16:03:55.317Z,7.27
2022-09-16T16:06:51.541Z,6.90
2022-09-16T16:09:44.803Z,6.77
2022-09-16T16:12:16.154Z,6.37
2022-09-16T16:14:47.012Z,6.00
2022-09-16T16:17:17.704Z,6.00
2022-09-16T16:19:47.240Z,5.60
2022-09-16T16:22:15.476Z,5.70
2022-09-16T16:24:45.449Z,7.50
2022-09-16T16:27:13.492Z,6.60
2022-09-16T16:29:41.572Z,6.30
2022-09-16T16:32:11.660Z,6.17
2022-09-16T16:34:41.011Z,5.73
2022-09-16T16:37:09.863Z,6.60
2022-09-16T16:39:38.294Z,6.43
2022-09-16T16:42:08.976Z,6.33
2022-09-16T16:44:37.288Z,5.90
2022-09-16T16:47:06.106Z,5.93
2022-09-16T16:49:35.030Z,6.43
2022-09-16T16:52:04.158Z,6.00
2022-09-16T16:54:32.901Z,6.30
2022-09-16T16:57:03.598Z,6.10
2022-09-16T16:59:33.052Z,6.10
2022-09-16T17:02:01.374Z,5.77
2022-09-16T17:04:29.448Z,6.20
2022-09-16T17:07:21.587Z,6.40
2022-09-16T17:09:45.829Z,6.57
2022-09-16T17:12:13.899Z,6.30
2022-09-16T17:14:43.361Z,6.60
2022-09-16T17:17:11.655Z,6.50
2022-09-16T17:19:39.741Z,6.00
2022-09-16T17:22:08.146Z,6.37
2022-09-16T17:24:36.364Z,6.70
2022-09-16T17:27:04.945Z,6.73
2022-09-16T17:29:33.029Z,6.70
2022-09-16T17:32:03.175Z,7.27
2022-09-16T17:34:32.612Z,7.67
2022-09-16T17:37:00.793Z,7.57
2022-09-16T17:39:28.943Z,6.77
2022-09-16T17:41:57.466Z,8.00
2022-09-16T17:44:25.685Z,8.20
2022-09-16T17:46:54.414Z,7.20
2022-09-16T17:49:25.178Z,7.83
2022-09-16T17:51:54.240Z,7.17
2022-09-16T17:54:22.686Z,6.43
2022-09-16T17:56:50.978Z,6.90
2022-09-16T17:59:20.057Z,7.13
2022-09-16T18:01:49.134Z,8.37
2022-09-16T18:04:17.226Z,7.57
2022-09-16T18:06:47.814Z,8.33
2022-09-16T18:09:17.255Z,7.17
2022-09-16T18:11:45.970Z,8.00
2022-09-16T18:14:14.900Z,7.80
2022-09-16T18:16:43.880Z,7.87
2022-09-16T18:19:12.286Z,7.70
2022-09-16T18:21:40.393Z,7.00
2022-09-16T18:24:13.059Z,6.80
2022-09-16T18:26:42.132Z,7.77
2022-09-16T18:29:18.016Z,7.90
2022-09-16T18:31:47.930Z,7.17
2022-09-16T18:34:17.585Z,7.37
2022-09-16T18:36:45.922Z,7.67
2022-09-16T18:39:17.593Z,7.40
2022-09-16T18:41:46.750Z,8.30
2022-09-16T18:44:16.416Z,7.30
2022-09-16T18:46:44.480Z,8.10
2022-09-16T18:49:14.046Z,7.03
2022-09-16T18:51:49.785Z,7.53
2022-09-16T18:54:24.498Z,7.20
2022-09-16T18:56:53.112Z,7.47
2022-09-16T18:59:24.268Z,8.77
2022-09-16T19:01:54.238Z,8.67
2022-09-16T19:04:23.811Z,7.47
2022-09-16T19:06:53.686Z,7.47
2022-09-16T19:09:24.953Z,7.57
2022-09-16T19:11:54.577Z,8.30
2022-09-16T19:14:24.878Z,7.63
2022-09-16T19:16:53.852Z,7.73
2022-09-16T19:19:22.836Z,8.73
2022-09-16T19:21:50.937Z,7.70
2022-09-16T19:24:21.676Z,8.10
2022-09-16T19:26:52.718Z,8.10
2022-09-16T19:29:21.938Z,8.40
2022-09-16T19:31:52.754Z,7.40
2022-09-16T19:34:21.568Z,7.80
2022-09-16T19:36:50.054Z,7.63
2022-09-16T19:39:18.621Z,7.70
2022-09-16T19:41:46.888Z,8.80
2022-09-16T19:44:18.665Z,8.17
2022-09-16T19:46:49.008Z,7.63
2022-09-16T19:49:19.693Z,7.80
2022-09-16T19:51:49.190Z,7.70
2022-09-16T19:54:17.895Z,7.00
2022-09-16T19:56:50.377Z,7.90
2022-09-16T19:59:21.180Z,8.10
2022-09-16T20:01:50.206Z,8.17
2022-09-16T20:04:20.919Z,8.17
2022-09-16T20:06:49.965Z,7.90
2022-09-16T20:09:18.323Z,8.30
2022-09-16T20:11:48.068Z,8.23
2022-09-16T20:14:19.393Z,7.80
2022-09-16T20:16:50.347Z,7.97
2022-09-16T20:19:20.154Z,7.97
2022-09-16T20:21:48.453Z,7.83
2022-09-16T20:24:18.530Z,7.87
2022-09-16T20:26:47.125Z,8.10
2022-09-16T20:29:17.284Z,7.93
2022-09-16T20:31:46.170Z,7.47
2022-09-16T20:34:16.539Z,8.17
2022-09-16T20:36:45.766Z,6.63
2022-09-16T20:39:14.937Z,8.60
2022-09-16T20:41:45.463Z,8.00
2022-09-16T20:44:14.579Z,7.90
2022-09-16T20:46:42.970Z,7.87
2022-09-16T20:49:16.465Z,7.70
2022-09-16T20:51:45.107Z,7.67
2022-09-16T20:54:14.984Z,7.47
2022-09-16T20:56:45.349Z,6.70
2022-09-16T20:59:15.053Z,7.03
2022-09-16T21:01:43.659Z,8.07
2022-09-16T21:04:17.324Z,8.10
2022-09-16T21:06:46.014Z,7.80
2022-09-16T21:09:16.003Z,8.03
2022-09-16T21:11:45.435Z,8.13
2022-09-16T21:14:15.973Z,8.13
2022-09-16T21:16:45.799Z,7.50
2022-09-16T21:19:16.692Z,7.30
2022-09-16T21:21:47.603Z,7.13
2022-09-16T21:24:16.323Z,7.20
2022-09-16T21:26:45.442Z,8.20
2022-09-16T21:29:16.142Z,7.70
2022-09-16T21:31:44.782Z,7.97
2022-09-16T21:34:16.181Z,8.10
2022-09-16T21:36:45.063Z,8.83
2022-09-16T21:39:14.042Z,8.13
2022-09-16T21:41:42.270Z,9.27
2022-09-16T21:44:10.620Z,8.10
2022-09-16T21:46:41.311Z,8.10
2022-09-16T21:49:22.662Z,8.50
2022-09-16T21:51:53.693Z,8.10
2022-09-16T21:54:22.347Z,7.60
2022-09-16T21:56:51.384Z,8.07
2022-09-16T21:59:20.616Z,9.10
2022-09-16T22:01:49.538Z,7.77
2022-09-16T22:04:19.486Z,8.10
2022-09-16T22:06:48.844Z,8.27
2022-09-16T22:09:18.451Z,9.20
2022-09-16T22:11:47.151Z,9.30
2022-09-16T22:14:15.654Z,9.70
2022-09-16T22:16:44.133Z,8.90
2022-09-16T22:19:15.823Z,10.17
2022-09-16T22:21:45.417Z,9.60
2022-09-16T22:24:16.073Z,10.60
2022-09-16T22:26:45.577Z,10.60
2022-09-16T22:29:14.530Z,10.00
2022-09-16T22:31:42.902Z,10.13
2022-09-16T22:34:11.144Z,10.00
2022-09-16T22:36:39.816Z,10.97
2022-09-16T22:39:13.089Z,10.60
2022-09-16T22:41:41.543Z,10.60
2022-09-16T22:44:11.137Z,11.00
2022-09-16T22:46:42.836Z,9.83
2022-09-16T22:49:11.667Z,11.00
2022-09-16T22:51:39.918Z,11.70
2022-09-16T22:54:08.233Z,11.10
2022-09-16T22:56:36.802Z,9.00
2022-09-16T22:59:07.008Z,10.10
2022-09-16T23:01:39.823Z,10.77
2022-09-16T23:04:09.516Z,9.93
2022-09-16T23:06:38.992Z,10.87
2022-09-16T23:09:08.322Z,10.13
2022-09-16T23:11:37.683Z,9.00
2022-09-16T23:14:06.351Z,8.83
2022-09-16T23:16:38.260Z,8.60
2022-09-16T23:19:08.488Z,9.20
2022-09-16T23:21:37.355Z,8.07
2022-09-16T23:24:07.059Z,8.20
2022-09-16T23:26:37.502Z,7.90
2022-09-16T23:29:07.884Z,8.10
2022-09-16T23:31:40.418Z,7.20
2022-09-16T23:34:09.004Z,7.07
2022-09-16T23:36:38.143Z,7.60
2022-09-16T23:39:07.568Z,6.93
2022-09-16T23:41:35.965Z,6.67
2022-09-16T23:44:03.984Z,6.57
2022-09-16T23:46:32.506Z,6.10
2022-09-16T23:49:02.621Z,6.00
2022-09-16T23:51:31.826Z,6.47
2022-09-16T23:54:01.204Z,6.20
2022-09-16T23:56:29.481Z,6.77
2022-09-16T23:59:00.509Z,6.50
